sensor_id;sensor_type;location;lat;lon;timestamp;P1;durP1;ratioP1;P2;durP2;ratioP2
74503;SDS011;62988;55.776;37.544;2022-09-14T00:02:04;4.72;;;2.92;;
74503;SDS011;62988;55.776;37.544;2022-09-14T00:04:29;3.92;;;2.63;;
74503;SDS011;62988;55.776;37.544;2022-09-14T00:06:55;4.93;;;3.03;;
74503;SDS011;62988;55.776;37.544;2022-09-14T00:09:21;4.63;;;2.78;;
74503;SDS011;62988;55.776;37.544;2022-09-14T00:11:48;5.47;;;2.63;;
74503;SDS011;62988;55.776;37.544;2022-09-14T00:14:15;4.22;;;2.50;;
74503;SDS011;62988;55.776;37.544;2022-09-14T00:16:41;3.78;;;2.53;;
74503;SDS011;62988;55.776;37.544;2022-09-14T00:19:12;3.80;;;2.63;;
74503;SDS011;62988;55.776;37.544;2022-09-14T00:21:41;4.13;;;2.42;;
74503;SDS011;62988;55.776;37.544;2022-09-14T00:24:08;5.15;;;2.70;;
74503;SDS011;62988;55.776;37.544;2022-09-14T00:26:34;4.15;;;2.65;;
74503;SDS011;62988;55.776;37.544;2022-09-14T00:29:01;7.18;;;3.00;;
74503;SDS011;62988;55.776;37.544;2022-09-14T00:31:29;5.15;;;2.72;;
74503;SDS011;62988;55.776;37.544;2022-09-14T00:34:02;3.50;;;2.85;;
74503;SDS011;62988;55.776;37.544;2022-09-14T00:36:29;5.72;;;3.05;;
74503;SDS011;62988;55.776;37.544;2022-09-14T00:38:55;3.63;;;2.85;;
74503;SDS011;62988;55.776;37.544;2022-09-14T00:41:22;5.30;;;2.88;;
74503;SDS011;62988;55.776;37.544;2022-09-14T00:46:26;4.20;;;3.05;;
74503;SDS011;62988;55.776;37.544;2022-09-14T00:49:04;4.00;;;2.80;;
74503;SDS011;62988;55.776;37.544;2022-09-14T00:51:32;4.60;;;2.83;;
74503;SDS011;62988;55.776;37.544;2022-09-14T00:54:00;3.60;;;2.63;;
74503;SDS011;62988;55.776;37.544;2022-09-14T00:56:27;6.63;;;2.90;;
74503;SDS011;62988;55.776;37.544;2022-09-14T00:58:53;4.75;;;2.90;;
74503;SDS011;62988;55.776;37.544;2022-09-14T01:01:22;4.57;;;2.75;;
74503;SDS011;62988;55.776;37.544;2022-09-14T01:03:49;3.95;;;2.50;;
74503;SDS011;62988;55.776;37.544;2022-09-14T01:11:42;3.90;;;2.78;;
74503;SDS011;62988;55.776;37.544;2022-09-14T01:17:09;6.75;;;3.20;;
74503;SDS011;62988;55.776;37.544;2022-09-14T01:22:34;3.78;;;2.50;;
74503;SDS011;62988;55.776;37.544;2022-09-14T01:25:14;4.13;;;2.58;;
74503;SDS011;62988;55.776;37.544;2022-09-14T01:28:00;3.10;;;2.10;;
74503;SDS011;62988;55.776;37.544;2022-09-14T01:30:34;4.18;;;2.53;;
74503;SDS011;62988;55.776;37.544;2022-09-14T01:33:24;4.78;;;3.22;;
74503;SDS011;62988;55.776;37.544;2022-09-14T01:35:56;3.28;;;2.17;;
74503;SDS011;62988;55.776;37.544;2022-09-14T01:38:36;5.63;;;2.53;;
74503;SDS011;62988;55.776;37.544;2022-09-14T01:41:06;6.55;;;2.40;;
74503;SDS011;62988;55.776;37.544;2022-09-14T01:43:39;4.35;;;2.72;;
74503;SDS011;62988;55.776;37.544;2022-09-14T01:46:15;6.20;;;2.25;;
74503;SDS011;62988;55.776;37.544;2022-09-14T01:48:48;3.10;;;2.10;;
74503;SDS011;62988;55.776;37.544;2022-09-14T01:51:24;3.28;;;2.10;;
74503;SDS011;62988;55.776;37.544;2022-09-14T01:56:25;4.32;;;1.95;;
74503;SDS011;62988;55.776;37.544;2022-09-14T02:01:47;4.20;;;1.98;;
74503;SDS011;62988;55.776;37.544;2022-09-14T02:04:17;5.15;;;2.13;;
74503;SDS011;62988;55.776;37.544;2022-09-14T02:06:50;3.47;;;2.20;;
74503;SDS011;62988;55.776;37.544;2022-09-14T02:09:17;5.15;;;2.33;;
74503;SDS011;62988;55.776;37.544;2022-09-14T02:11:46;4.32;;;2.40;;
74503;SDS011;62988;55.776;37.544;2022-09-14T02:14:12;5.15;;;2.20;;
74503;SDS011;62988;55.776;37.544;2022-09-14T02:16:38;3.58;;;2.13;;
74503;SDS011;62988;55.776;37.544;2022-09-14T02:19:07;4.47;;;2.13;;
74503;SDS011;62988;55.776;37.544;2022-09-14T02:21:33;3.42;;;2.08;;
74503;SDS011;62988;55.776;37.544;2022-09-14T02:23:59;4.03;;;2.40;;
74503;SDS011;62988;55.776;37.544;2022-09-14T02:26:25;3.33;;;2.22;;
74503;SDS011;62988;55.776;37.544;2022-09-14T02:28:52;4.25;;;2.45;;
74503;SDS011;62988;55.776;37.544;2022-09-14T02:31:26;4.07;;;2.45;;
74503;SDS011;62988;55.776;37.544;2022-09-14T02:39:23;4.47;;;2.78;;
74503;SDS011;62988;55.776;37.544;2022-09-14T02:42:19;6.40;;;2.15;;
74503;SDS011;62988;55.776;37.544;2022-09-14T02:49:57;4.43;;;2.75;;
74503;SDS011;62988;55.776;37.544;2022-09-14T02:53:32;4.00;;;2.90;;
74503;SDS011;62988;55.776;37.544;2022-09-14T02:55:42;6.00;;;2.60;;
74503;SDS011;62988;55.776;37.544;2022-09-14T02:58:13;4.53;;;2.83;;
74503;SDS011;62988;55.776;37.544;2022-09-14T03:00:42;6.60;;;2.63;;
74503;SDS011;62988;55.776;37.544;2022-09-14T03:03:11;5.82;;;2.90;;
74503;SDS011;62988;55.776;37.544;2022-09-14T03:05:40;5.68;;;3.13;;
74503;SDS011;62988;55.776;37.544;2022-09-14T03:08:06;6.20;;;2.88;;
74503;SDS011;62988;55.776;37.544;2022-09-14T03:10:32;6.22;;;2.97;;
74503;SDS011;62988;55.776;37.544;2022-09-14T03:12:58;4.97;;;2.72;;
74503;SDS011;62988;55.776;37.544;2022-09-14T03:15:25;6.05;;;3.25;;
74503;SDS011;62988;55.776;37.544;2022-09-14T03:17:51;6.63;;;2.95;;
74503;SDS011;62988;55.776;37.544;2022-09-14T03:20:21;4.30;;;2.55;;
74503;SDS011;62988;55.776;37.544;2022-09-14T03:22:48;6.20;;;3.00;;
74503;SDS011;62988;55.776;37.544;2022-09-14T03:25:14;5.97;;;3.25;;
74503;SDS011;62988;55.776;37.544;2022-09-14T03:27:40;5.28;;;3.83;;
74503;SDS011;62988;55.776;37.544;2022-09-14T03:30:06;5.68;;;3.00;;
74503;SDS011;62988;55.776;37.544;2022-09-14T03:32:32;5.22;;;3.47;;
74503;SDS011;62988;55.776;37.544;2022-09-14T03:34:58;5.00;;;3.40;;
74503;SDS011;62988;55.776;37.544;2022-09-14T03:37:24;4.90;;;3.40;;
74503;SDS011;62988;55.776;37.544;2022-09-14T03:39:51;6.53;;;3.25;;
74503;SDS011;62988;55.776;37.544;2022-09-14T03:42:16;7.20;;;3.20;;
74503;SDS011;62988;55.776;37.544;2022-09-14T03:44:42;6.32;;;3.45;;
74503;SDS011;62988;55.776;37.544;2022-09-14T03:47:08;6.03;;;3.00;;
74503;SDS011;62988;55.776;37.544;2022-09-14T03:49:33;9.35;;;4.57;;
74503;SDS011;62988;55.776;37.544;2022-09-14T03:51:59;6.90;;;3.90;;
74503;SDS011;62988;55.776;37.544;2022-09-14T03:54:25;8.77;;;4.60;;
74503;SDS011;62988;55.776;37.544;2022-09-14T03:56:51;6.18;;;3.80;;
74503;SDS011;62988;55.776;37.544;2022-09-14T03:59:17;7.60;;;5.10;;
74503;SDS011;62988;55.776;37.544;2022-09-14T04:01:44;6.88;;;4.45;;
74503;SDS011;62988;55.776;37.544;2022-09-14T04:04:09;8.95;;;4.75;;
74503;SDS011;62988;55.776;37.544;2022-09-14T04:06:35;9.02;;;4.40;;
74503;SDS011;62988;55.776;37.544;2022-09-14T04:09:00;7.68;;;4.25;;
74503;SDS011;62988;55.776;37.544;2022-09-14T04:11:26;8.35;;;5.55;;
74503;SDS011;62988;55.776;37.544;2022-09-14T04:13:53;8.85;;;5.60;;
74503;SDS011;62988;55.776;37.544;2022-09-14T04:16:19;10.63;;;5.57;;
74503;SDS011;62988;55.776;37.544;2022-09-14T04:18:45;9.55;;;6.00;;
74503;SDS011;62988;55.776;37.544;2022-09-14T04:21:12;8.90;;;5.38;;
74503;SDS011;62988;55.776;37.544;2022-09-14T04:23:39;14.15;;;6.50;;
74503;SDS011;62988;55.776;37.544;2022-09-14T04:26:25;6.78;;;4.15;;
74503;SDS011;62988;55.776;37.544;2022-09-14T04:28:52;10.55;;;5.47;;
74503;SDS011;62988;55.776;37.544;2022-09-14T04:31:19;10.82;;;6.20;;
74503;SDS011;62988;55.776;37.544;2022-09-14T04:33:44;9.07;;;6.03;;
74503;SDS011;62988;55.776;37.544;2022-09-14T04:36:12;12.27;;;6.40;;
74503;SDS011;62988;55.776;37.544;2022-09-14T04:38:40;10.18;;;6.22;;
74503;SDS011;62988;55.776;37.544;2022-09-14T04:41:08;8.93;;;6.28;;
74503;SDS011;62988;55.776;37.544;2022-09-14T04:43:38;8.48;;;5.80;;
74503;SDS011;62988;55.776;37.544;2022-09-14T04:46:04;8.48;;;5.88;;
74503;SDS011;62988;55.776;37.544;2022-09-14T04:48:34;10.07;;;5.88;;
74503;SDS011;62988;55.776;37.544;2022-09-14T04:51:07;8.23;;;6.30;;
74503;SDS011;62988;55.776;37.544;2022-09-14T04:53:37;9.43;;;6.40;;
74503;SDS011;62988;55.776;37.544;2022-09-14T04:56:07;9.77;;;6.22;;
74503;SDS011;62988;55.776;37.544;2022-09-14T04:58:36;9.75;;;5.63;;
74503;SDS011;62988;55.776;37.544;2022-09-14T05:01:06;10.50;;;6.03;;
74503;SDS011;62988;55.776;37.544;2022-09-14T05:03:34;9.43;;;5.68;;
74503;SDS011;62988;55.776;37.544;2022-09-14T05:06:16;10.02;;;7.00;;
74503;SDS011;62988;55.776;37.544;2022-09-14T05:08:43;11.25;;;5.88;;
74503;SDS011;62988;55.776;37.544;2022-09-14T05:11:11;8.40;;;5.70;;
74503;SDS011;62988;55.776;37.544;2022-09-14T05:13:39;9.02;;;6.45;;
74503;SDS011;62988;55.776;37.544;2022-09-14T05:16:14;11.10;;;7.00;;
74503;SDS011;62988;55.776;37.544;2022-09-14T05:18:47;11.25;;;6.60;;
74503;SDS011;62988;55.776;37.544;2022-09-14T05:21:15;9.25;;;6.60;;
74503;SDS011;62988;55.776;37.544;2022-09-14T05:23:43;8.93;;;6.07;;
74503;SDS011;62988;55.776;37.544;2022-09-14T05:26:09;10.10;;;6.82;;
74503;SDS011;62988;55.776;37.544;2022-09-14T05:28:35;11.25;;;6.97;;
74503;SDS011;62988;55.776;37.544;2022-09-14T05:31:07;8.90;;;6.32;;
74503;SDS011;62988;55.776;37.544;2022-09-14T05:33:35;9.40;;;6.35;;
74503;SDS011;62988;55.776;37.544;2022-09-14T05:36:01;12.18;;;6.60;;
74503;SDS011;62988;55.776;37.544;2022-09-14T05:38:29;11.35;;;7.40;;
74503;SDS011;62988;55.776;37.544;2022-09-14T05:40:55;11.57;;;6.93;;
74503;SDS011;62988;55.776;37.544;2022-09-14T05:43:21;9.20;;;6.45;;
74503;SDS011;62988;55.776;37.544;2022-09-14T05:45:47;8.98;;;6.50;;
74503;SDS011;62988;55.776;37.544;2022-09-14T05:48:13;11.07;;;7.78;;
74503;SDS011;62988;55.776;37.544;2022-09-14T05:50:38;10.88;;;7.60;;
74503;SDS011;62988;55.776;37.544;2022-09-14T05:53:04;10.27;;;7.20;;
74503;SDS011;62988;55.776;37.544;2022-09-14T05:55:30;9.13;;;6.10;;
74503;SDS011;62988;55.776;37.544;2022-09-14T05:57:55;10.90;;;6.65;;
74503;SDS011;62988;55.776;37.544;2022-09-14T06:00:21;9.27;;;6.15;;
74503;SDS011;62988;55.776;37.544;2022-09-14T06:02:47;7.97;;;5.75;;
74503;SDS011;62988;55.776;37.544;2022-09-14T06:05:14;10.98;;;6.75;;
74503;SDS011;62988;55.776;37.544;2022-09-14T06:07:40;13.60;;;6.40;;
74503;SDS011;62988;55.776;37.544;2022-09-14T06:10:06;12.50;;;7.70;;
74503;SDS011;62988;55.776;37.544;2022-09-14T06:12:31;9.43;;;5.40;;
74503;SDS011;62988;55.776;37.544;2022-09-14T06:14:57;12.68;;;8.48;;
74503;SDS011;62988;55.776;37.544;2022-09-14T06:17:22;13.15;;;8.40;;
74503;SDS011;62988;55.776;37.544;2022-09-14T06:19:48;9.25;;;6.70;;
74503;SDS011;62988;55.776;37.544;2022-09-14T06:22:14;11.50;;;7.68;;
74503;SDS011;62988;55.776;37.544;2022-09-14T06:24:39;11.13;;;7.28;;
74503;SDS011;62988;55.776;37.544;2022-09-14T06:27:05;12.18;;;7.45;;
74503;SDS011;62988;55.776;37.544;2022-09-14T06:29:33;10.18;;;7.00;;
74503;SDS011;62988;55.776;37.544;2022-09-14T06:31:59;12.05;;;6.88;;
74503;SDS011;62988;55.776;37.544;2022-09-14T06:34:24;11.00;;;8.05;;
74503;SDS011;62988;55.776;37.544;2022-09-14T06:36:50;10.90;;;6.88;;
74503;SDS011;62988;55.776;37.544;2022-09-14T06:39:15;10.93;;;6.30;;
74503;SDS011;62988;55.776;37.544;2022-09-14T06:41:41;11.85;;;5.63;;
74503;SDS011;62988;55.776;37.544;2022-09-14T06:44:07;10.38;;;6.45;;
74503;SDS011;62988;55.776;37.544;2022-09-14T06:46:33;9.10;;;6.53;;
74503;SDS011;62988;55.776;37.544;2022-09-14T06:49:06;9.40;;;5.45;;
74503;SDS011;62988;55.776;37.544;2022-09-14T06:51:35;7.25;;;4.60;;
74503;SDS011;62988;55.776;37.544;2022-09-14T06:54:02;8.60;;;5.95;;
74503;SDS011;62988;55.776;37.544;2022-09-14T06:56:33;8.93;;;4.32;;
74503;SDS011;62988;55.776;37.544;2022-09-14T06:59:00;10.15;;;5.18;;
74503;SDS011;62988;55.776;37.544;2022-09-14T07:01:26;8.18;;;5.15;;
74503;SDS011;62988;55.776;37.544;2022-09-14T07:03:54;7.45;;;4.45;;
74503;SDS011;62988;55.776;37.544;2022-09-14T07:06:21;6.10;;;4.60;;
74503;SDS011;62988;55.776;37.544;2022-09-14T07:08:49;9.27;;;4.97;;
74503;SDS011;62988;55.776;37.544;2022-09-14T07:11:17;7.43;;;4.55;;
74503;SDS011;62988;55.776;37.544;2022-09-14T07:13:44;7.47;;;4.60;;
74503;SDS011;62988;55.776;37.544;2022-09-14T07:16:11;7.68;;;4.40;;
74503;SDS011;62988;55.776;37.544;2022-09-14T07:18:36;10.02;;;4.95;;
74503;SDS011;62988;55.776;37.544;2022-09-14T07:23:39;8.95;;;4.55;;
74503;SDS011;62988;55.776;37.544;2022-09-14T07:26:10;7.05;;;4.82;;
74503;SDS011;62988;55.776;37.544;2022-09-14T07:28:38;9.15;;;5.20;;
74503;SDS011;62988;55.776;37.544;2022-09-14T07:31:12;10.18;;;5.20;;
74503;SDS011;62988;55.776;37.544;2022-09-14T07:33:52;10.13;;;5.75;;
74503;SDS011;62988;55.776;37.544;2022-09-14T07:36:19;9.43;;;5.45;;
74503;SDS011;62988;55.776;37.544;2022-09-14T07:38:45;10.02;;;6.53;;
74503;SDS011;62988;55.776;37.544;2022-09-14T07:41:11;10.27;;;6.75;;
74503;SDS011;62988;55.776;37.544;2022-09-14T07:43:37;10.68;;;6.07;;
74503;SDS011;62988;55.776;37.544;2022-09-14T07:46:03;11.70;;;6.93;;
74503;SDS011;62988;55.776;37.544;2022-09-14T07:48:33;13.48;;;7.97;;
74503;SDS011;62988;55.776;37.544;2022-09-14T07:53:26;12.60;;;9.07;;
74503;SDS011;62988;55.776;37.544;2022-09-14T07:55:52;16.98;;;8.55;;
74503;SDS011;62988;55.776;37.544;2022-09-14T07:58:17;13.43;;;8.20;;
74503;SDS011;62988;55.776;37.544;2022-09-14T08:00:43;16.02;;;8.57;;
74503;SDS011;62988;55.776;37.544;2022-09-14T08:03:09;12.27;;;7.50;;
74503;SDS011;62988;55.776;37.544;2022-09-14T08:05:35;15.80;;;9.18;;
74503;SDS011;62988;55.776;37.544;2022-09-14T08:08:00;12.80;;;8.20;;
74503;SDS011;62988;55.776;37.544;2022-09-14T08:10:26;13.25;;;8.13;;
74503;SDS011;62988;55.776;37.544;2022-09-14T08:12:52;11.43;;;7.55;;
74503;SDS011;62988;55.776;37.544;2022-09-14T08:15:19;13.43;;;7.20;;
74503;SDS011;62988;55.776;37.544;2022-09-14T08:17:46;15.15;;;8.38;;
74503;SDS011;62988;55.776;37.544;2022-09-14T08:20:12;13.77;;;8.40;;
74503;SDS011;62988;55.776;37.544;2022-09-14T08:22:38;15.13;;;7.57;;
74503;SDS011;62988;55.776;37.544;2022-09-14T08:25:03;9.98;;;7.55;;
74503;SDS011;62988;55.776;37.544;2022-09-14T08:27:29;11.52;;;7.05;;
74503;SDS011;62988;55.776;37.544;2022-09-14T08:29:55;11.90;;;8.05;;
74503;SDS011;62988;55.776;37.544;2022-09-14T08:32:20;11.65;;;7.45;;
74503;SDS011;62988;55.776;37.544;2022-09-14T08:34:46;10.15;;;6.55;;
74503;SDS011;62988;55.776;37.544;2022-09-14T08:37:13;11.57;;;7.40;;
74503;SDS011;62988;55.776;37.544;2022-09-14T08:39:39;13.27;;;6.68;;
74503;SDS011;62988;55.776;37.544;2022-09-14T08:42:05;10.70;;;6.60;;
74503;SDS011;62988;55.776;37.544;2022-09-14T08:44:42;12.93;;;6.82;;
74503;SDS011;62988;55.776;37.544;2022-09-14T08:47:13;11.95;;;7.38;;
74503;SDS011;62988;55.776;37.544;2022-09-14T08:52:40;10.38;;;6.68;;
74503;SDS011;62988;55.776;37.544;2022-09-14T08:57:55;8.80;;;6.05;;
74503;SDS011;62988;55.776;37.544;2022-09-14T09:00:30;11.45;;;7.35;;
74503;SDS011;62988;55.776;37.544;2022-09-14T09:11:39;8.68;;;5.30;;
74503;SDS011;62988;55.776;37.544;2022-09-14T09:14:12;10.07;;;4.97;;
74503;SDS011;62988;55.776;37.544;2022-09-14T09:16:46;9.40;;;5.88;;
74503;SDS011;62988;55.776;37.544;2022-09-14T09:19:20;10.65;;;5.97;;
74503;SDS011;62988;55.776;37.544;2022-09-14T09:21:51;13.00;;;6.50;;
74503;SDS011;62988;55.776;37.544;2022-09-14T09:24:26;15.77;;;7.30;;
74503;SDS011;62988;55.776;37.544;2022-09-14T09:26:55;12.18;;;7.35;;
74503;SDS011;62988;55.776;37.544;2022-09-14T09:29:21;10.05;;;6.68;;
74503;SDS011;62988;55.776;37.544;2022-09-14T09:31:50;9.80;;;6.85;;
74503;SDS011;62988;55.776;37.544;2022-09-14T09:34:26;9.23;;;6.38;;
74503;SDS011;62988;55.776;37.544;2022-09-14T09:36:53;11.23;;;6.05;;
74503;SDS011;62988;55.776;37.544;2022-09-14T09:39:24;9.18;;;6.57;;
74503;SDS011;62988;55.776;37.544;2022-09-14T09:41:56;9.15;;;5.47;;
74503;SDS011;62988;55.776;37.544;2022-09-14T09:44:25;8.80;;;5.80;;
74503;SDS011;62988;55.776;37.544;2022-09-14T09:46:57;11.48;;;6.82;;
74503;SDS011;62988;55.776;37.544;2022-09-14T09:49:34;10.93;;;5.90;;
74503;SDS011;62988;55.776;37.544;2022-09-14T09:52:08;10.63;;;6.70;;
74503;SDS011;62988;55.776;37.544;2022-09-14T09:54:36;10.57;;;5.50;;
74503;SDS011;62988;55.776;37.544;2022-09-14T09:57:17;9.18;;;5.70;;
74503;SDS011;62988;55.776;37.544;2022-09-14T10:02:39;7.53;;;5.05;;
74503;SDS011;62988;55.776;37.544;2022-09-14T10:07:35;7.53;;;4.45;;
74503;SDS011;62988;55.776;37.544;2022-09-14T10:12:59;6.05;;;3.95;;
74503;SDS011;62988;55.776;37.544;2022-09-14T10:15:31;8.65;;;4.32;;
74503;SDS011;62988;55.776;37.544;2022-09-14T10:20:26;7.50;;;4.78;;
74503;SDS011;62988;55.776;37.544;2022-09-14T10:22:52;10.75;;;5.65;;
74503;SDS011;62988;55.776;37.544;2022-09-14T10:27:46;7.03;;;4.00;;
74503;SDS011;62988;55.776;37.544;2022-09-14T10:32:46;8.90;;;4.85;;
74503;SDS011;62988;55.776;37.544;2022-09-14T10:35:18;9.70;;;5.22;;
74503;SDS011;62988;55.776;37.544;2022-09-14T10:54:49;8.35;;;4.72;;
74503;SDS011;62988;55.776;37.544;2022-09-14T10:57:47;6.60;;;4.15;;
74503;SDS011;62988;55.776;37.544;2022-09-14T11:00:17;9.88;;;5.18;;
74503;SDS011;62988;55.776;37.544;2022-09-14T11:05:37;7.55;;;4.40;;
74503;SDS011;62988;55.776;37.544;2022-09-14T11:19:01;9.63;;;4.30;;
74503;SDS011;62988;55.776;37.544;2022-09-14T11:24:44;8.50;;;3.70;;
74503;SDS011;62988;55.776;37.544;2022-09-14T11:27:26;6.35;;;3.90;;
74503;SDS011;62988;55.776;37.544;2022-09-14T11:30:04;10.38;;;4.90;;
74503;SDS011;62988;55.776;37.544;2022-09-14T11:35:16;10.50;;;5.20;;
74503;SDS011;62988;55.776;37.544;2022-09-14T11:37:46;9.00;;;5.00;;
74503;SDS011;62988;55.776;37.544;2022-09-14T11:45:35;8.50;;;5.00;;
74503;SDS011;62988;55.776;37.544;2022-09-14T11:48:24;10.52;;;5.32;;
74503;SDS011;62988;55.776;37.544;2022-09-14T11:51:01;8.18;;;4.50;;
74503;SDS011;62988;55.776;37.544;2022-09-14T11:53:40;7.38;;;4.75;;
74503;SDS011;62988;55.776;37.544;2022-09-14T11:56:44;6.22;;;3.72;;
74503;SDS011;62988;55.776;37.544;2022-09-14T11:59:03;7.22;;;4.47;;
74503;SDS011;62988;55.776;37.544;2022-09-14T12:11:55;7.82;;;4.72;;
74503;SDS011;62988;55.776;37.544;2022-09-14T12:22:31;7.47;;;4.85;;
74503;SDS011;62988;55.776;37.544;2022-09-14T12:27:34;7.85;;;4.35;;
74503;SDS011;62988;55.776;37.544;2022-09-14T12:32:47;7.75;;;3.83;;
74503;SDS011;62988;55.776;37.544;2022-09-14T12:46:47;8.30;;;5.47;;
74503;SDS011;62988;55.776;37.544;2022-09-14T12:49:02;9.10;;;5.18;;
74503;SDS011;62988;55.776;37.544;2022-09-14T12:51:46;12.25;;;5.10;;
74503;SDS011;62988;55.776;37.544;2022-09-14T12:54:16;9.18;;;5.05;;
74503;SDS011;62988;55.776;37.544;2022-09-14T12:59:44;8.50;;;4.97;;
74503;SDS011;62988;55.776;37.544;2022-09-14T13:04:44;12.02;;;6.07;;
74503;SDS011;62988;55.776;37.544;2022-09-14T13:07:12;9.82;;;5.22;;
74503;SDS011;62988;55.776;37.544;2022-09-14T13:09:50;9.80;;;4.75;;
74503;SDS011;62988;55.776;37.544;2022-09-14T13:12:22;11.60;;;5.07;;
74503;SDS011;62988;55.776;37.544;2022-09-14T13:14:54;10.93;;;5.57;;
74503;SDS011;62988;55.776;37.544;2022-09-14T13:17:24;10.63;;;5.15;;
74503;SDS011;62988;55.776;37.544;2022-09-14T13:19:54;9.40;;;4.75;;
74503;SDS011;62988;55.776;37.544;2022-09-14T13:22:29;11.50;;;4.97;;
74503;SDS011;62988;55.776;37.544;2022-09-14T13:24:56;13.13;;;4.70;;
74503;SDS011;62988;55.776;37.544;2022-09-14T13:32:46;14.45;;;4.95;;
74503;SDS011;62988;55.776;37.544;2022-09-14T13:37:46;8.32;;;4.45;;
74503;SDS011;62988;55.776;37.544;2022-09-14T13:40:11;11.45;;;4.95;;
74503;SDS011;62988;55.776;37.544;2022-09-14T13:42:38;11.73;;;4.40;;
74503;SDS011;62988;55.776;37.544;2022-09-14T13:45:05;7.20;;;4.35;;
74503;SDS011;62988;55.776;37.544;2022-09-14T13:47:31;14.32;;;5.07;;
74503;SDS011;62988;55.776;37.544;2022-09-14T13:49:58;10.20;;;4.75;;
74503;SDS011;62988;55.776;37.544;2022-09-14T13:57:36;9.45;;;4.95;;
74503;SDS011;62988;55.776;37.544;2022-09-14T14:00:18;9.10;;;4.53;;
74503;SDS011;62988;55.776;37.544;2022-09-14T14:05:21;10.15;;;4.68;;
74503;SDS011;62988;55.776;37.544;2022-09-14T14:07:59;12.40;;;4.40;;
74503;SDS011;62988;55.776;37.544;2022-09-14T14:10:28;6.97;;;3.67;;
74503;SDS011;62988;55.776;37.544;2022-09-14T14:12:58;6.68;;;4.10;;
74503;SDS011;62988;55.776;37.544;2022-09-14T14:17:51;9.07;;;4.78;;
74503;SDS011;62988;55.776;37.544;2022-09-14T14:22:56;10.80;;;4.68;;
74503;SDS011;62988;55.776;37.544;2022-09-14T14:28:15;10.40;;;5.75;;
74503;SDS011;62988;55.776;37.544;2022-09-14T14:30:52;7.85;;;4.88;;
74503;SDS011;62988;55.776;37.544;2022-09-14T14:33:18;8.85;;;4.57;;
74503;SDS011;62988;55.776;37.544;2022-09-14T14:35:48;12.18;;;5.45;;
74503;SDS011;62988;55.776;37.544;2022-09-14T14:38:19;11.07;;;5.32;;
74503;SDS011;62988;55.776;37.544;2022-09-14T14:40:46;16.10;;;5.05;;
74503;SDS011;62988;55.776;37.544;2022-09-14T14:43:16;11.13;;;5.28;;
74503;SDS011;62988;55.776;37.544;2022-09-14T14:45:44;14.65;;;5.75;;
74503;SDS011;62988;55.776;37.544;2022-09-14T14:48:10;11.77;;;5.75;;
74503;SDS011;62988;55.776;37.544;2022-09-14T14:50:36;10.90;;;5.22;;
74503;SDS011;62988;55.776;37.544;2022-09-14T14:53:02;9.98;;;5.00;;
74503;SDS011;62988;55.776;37.544;2022-09-14T14:55:29;11.27;;;5.10;;
74503;SDS011;62988;55.776;37.544;2022-09-14T14:58:00;9.20;;;5.13;;
74503;SDS011;62988;55.776;37.544;2022-09-14T15:00:29;14.90;;;6.13;;
74503;SDS011;62988;55.776;37.544;2022-09-14T15:02:57;12.40;;;5.60;;
74503;SDS011;62988;55.776;37.544;2022-09-14T15:05:23;15.02;;;5.32;;
74503;SDS011;62988;55.776;37.544;2022-09-14T15:07:49;7.97;;;4.50;;
74503;SDS011;62988;55.776;37.544;2022-09-14T15:10:18;13.27;;;6.25;;
74503;SDS011;62988;55.776;37.544;2022-09-14T15:12:44;12.38;;;5.57;;
74503;SDS011;62988;55.776;37.544;2022-09-14T15:15:13;14.00;;;5.15;;
74503;SDS011;62988;55.776;37.544;2022-09-14T15:17:42;11.68;;;5.45;;
74503;SDS011;62988;55.776;37.544;2022-09-14T15:20:08;10.35;;;6.15;;
74503;SDS011;62988;55.776;37.544;2022-09-14T15:22:34;10.55;;;5.20;;
74503;SDS011;62988;55.776;37.544;2022-09-14T15:25:00;11.00;;;4.68;;
74503;SDS011;62988;55.776;37.544;2022-09-14T15:27:26;9.55;;;4.50;;
74503;SDS011;62988;55.776;37.544;2022-09-14T15:29:52;8.88;;;4.82;;
74503;SDS011;62988;55.776;37.544;2022-09-14T15:32:17;11.43;;;5.05;;
74503;SDS011;62988;55.776;37.544;2022-09-14T15:34:43;13.02;;;5.65;;
74503;SDS011;62988;55.776;37.544;2022-09-14T15:37:09;9.77;;;5.15;;
74503;SDS011;62988;55.776;37.544;2022-09-14T15:39:34;9.07;;;5.03;;
74503;SDS011;62988;55.776;37.544;2022-09-14T15:42:00;10.02;;;5.72;;
74503;SDS011;62988;55.776;37.544;2022-09-14T15:44:27;16.65;;;6.07;;
74503;SDS011;62988;55.776;37.544;2022-09-14T15:46:55;14.30;;;4.88;;
74503;SDS011;62988;55.776;37.544;2022-09-14T15:49:21;8.52;;;4.45;;
74503;SDS011;62988;55.776;37.544;2022-09-14T15:51:48;8.95;;;5.43;;
74503;SDS011;62988;55.776;37.544;2022-09-14T15:54:16;12.27;;;5.35;;
74503;SDS011;62988;55.776;37.544;2022-09-14T15:56:53;9.35;;;5.25;;
74503;SDS011;62988;55.776;37.544;2022-09-14T15:59:20;11.80;;;5.53;;
74503;SDS011;62988;55.776;37.544;2022-09-14T16:01:46;9.15;;;5.40;;
74503;SDS011;62988;55.776;37.544;2022-09-14T16:04:12;13.60;;;6.20;;
74503;SDS011;62988;55.776;37.544;2022-09-14T16:06:38;10.82;;;5.18;;
74503;SDS011;62988;55.776;37.544;2022-09-14T16:09:06;10.35;;;5.85;;
74503;SDS011;62988;55.776;37.544;2022-09-14T16:11:33;13.10;;;5.32;;
74503;SDS011;62988;55.776;37.544;2022-09-14T16:13:59;8.95;;;5.00;;
74503;SDS011;62988;55.776;37.544;2022-09-14T16:16:25;10.77;;;5.93;;
74503;SDS011;62988;55.776;37.544;2022-09-14T16:18:51;11.93;;;5.80;;
74503;SDS011;62988;55.776;37.544;2022-09-14T16:21:20;12.77;;;6.15;;
74503;SDS011;62988;55.776;37.544;2022-09-14T16:23:52;13.07;;;5.78;;
74503;SDS011;62988;55.776;37.544;2022-09-14T16:26:20;11.20;;;5.55;;
74503;SDS011;62988;55.776;37.544;2022-09-14T16:28:48;15.13;;;6.53;;
74503;SDS011;62988;55.776;37.544;2022-09-14T16:31:16;12.70;;;6.18;;
74503;SDS011;62988;55.776;37.544;2022-09-14T16:33:47;13.93;;;8.13;;
74503;SDS011;62988;55.776;37.544;2022-09-14T16:36:19;14.77;;;6.63;;
74503;SDS011;62988;55.776;37.544;2022-09-14T16:38:48;11.15;;;6.57;;
74503;SDS011;62988;55.776;37.544;2022-09-14T16:41:14;14.85;;;7.72;;
74503;SDS011;62988;55.776;37.544;2022-09-14T16:43:40;14.40;;;6.30;;
74503;SDS011;62988;55.776;37.544;2022-09-14T16:46:12;15.40;;;6.95;;
74503;SDS011;62988;55.776;37.544;2022-09-14T16:48:41;11.65;;;6.60;;
74503;SDS011;62988;55.776;37.544;2022-09-14T16:51:08;15.32;;;7.00;;
74503;SDS011;62988;55.776;37.544;2022-09-14T16:53:35;18.02;;;7.10;;
74503;SDS011;62988;55.776;37.544;2022-09-14T16:56:04;15.50;;;6.78;;
74503;SDS011;62988;55.776;37.544;2022-09-14T16:58:31;19.05;;;8.35;;
74503;SDS011;62988;55.776;37.544;2022-09-14T17:01:07;13.45;;;7.45;;
74503;SDS011;62988;55.776;37.544;2022-09-14T17:03:40;14.90;;;7.40;;
74503;SDS011;62988;55.776;37.544;2022-09-14T17:06:08;14.50;;;7.22;;
74503;SDS011;62988;55.776;37.544;2022-09-14T17:08:36;14.98;;;7.70;;
74503;SDS011;62988;55.776;37.544;2022-09-14T17:11:02;13.07;;;7.45;;
74503;SDS011;62988;55.776;37.544;2022-09-14T17:13:29;14.18;;;7.53;;
74503;SDS011;62988;55.776;37.544;2022-09-14T17:16:05;12.68;;;7.47;;
74503;SDS011;62988;55.776;37.544;2022-09-14T17:18:33;14.18;;;7.35;;
74503;SDS011;62988;55.776;37.544;2022-09-14T17:21:10;14.00;;;7.75;;
74503;SDS011;62988;55.776;37.544;2022-09-14T17:23:38;12.10;;;7.03;;
74503;SDS011;62988;55.776;37.544;2022-09-14T17:26:05;14.35;;;8.48;;
74503;SDS011;62988;55.776;37.544;2022-09-14T17:28:32;14.30;;;7.40;;
74503;SDS011;62988;55.776;37.544;2022-09-14T17:30:59;11.50;;;7.15;;